createdAt,value
2022-11-29T00:01:51.919Z,87.66
2022-11-29T00:04:22.509Z,87.78
2022-11-29T00:06:52.992Z,87.85
2022-11-29T00:09:23.382Z,87.92
2022-11-29T00:12:11.387Z,87.96
2022-11-29T00:14:42.657Z,88.03
2022-11-29T00:17:13.386Z,88.09
2022-11-29T00:19:45.120Z,88.12
2022-11-29T00:22:15.881Z,88.13
2022-11-29T00:24:46.537Z,87.97
2022-11-29T00:27:17.249Z,88.02
2022-11-29T00:29:48.139Z,88.05
2022-11-29T00:32:18.917Z,88.17
2022-11-29T00:34:49.575Z,88.20
2022-11-29T00:37:20.302Z,88.10
2022-11-29T00:39:50.880Z,88.06
2022-11-29T00:42:21.504Z,88.03
2022-11-29T00:44:52.118Z,88.14
2022-11-29T00:47:22.641Z,88.25
2022-11-29T00:49:53.132Z,88.43
2022-11-29T00:52:23.611Z,88.57
2022-11-29T00:54:53.978Z,88.46
2022-11-29T00:57:24.375Z,88.43
2022-11-29T00:59:54.851Z,88.45
2022-11-29T01:02:25.218Z,88.37
2022-11-29T01:04:55.652Z,88.40
2022-11-29T01:07:26.085Z,88.45
2022-11-29T01:09:56.582Z,88.44
2022-11-29T01:12:27.465Z,88.37
2022-11-29T01:14:58.956Z,88.66
2022-11-29T01:17:29.445Z,88.83
2022-11-29T01:19:59.962Z,89.00
2022-11-29T01:22:30.432Z,89.17
2022-11-29T01:25:01.125Z,89.05
2022-11-29T01:27:31.756Z,88.99
2022-11-29T01:30:02.438Z,88.89
2022-11-29T01:32:33.352Z,88.98
2022-11-29T01:35:04.322Z,89.19
2022-11-29T01:37:35.143Z,89.10
2022-11-29T01:40:08.367Z,88.89
2022-11-29T01:42:38.741Z,88.78
2022-11-29T01:45:23.638Z,88.72
2022-11-29T01:47:56.396Z,88.69
2022-11-29T01:50:27.231Z,88.72
2022-11-29T01:52:57.616Z,88.75
2022-11-29T01:55:27.995Z,88.91
2022-11-29T01:57:58.614Z,88.94
2022-11-29T02:00:29.613Z,88.94
2022-11-29T02:03:03.335Z,89.10
2022-11-29T02:05:35.333Z,89.13
2022-11-29T02:08:06.947Z,89.07
2022-11-29T02:10:45.533Z,89.05
2022-11-29T02:13:23.675Z,89.05
2022-11-29T02:15:58.436Z,88.89
2022-11-29T02:18:38.077Z,88.79
2022-11-29T02:21:26.357Z,89.00
2022-11-29T02:24:41.570Z,89.12
2022-11-29T02:27:46.859Z,89.00
2022-11-29T02:30:22.129Z,88.96
2022-11-29T02:33:23.082Z,88.97
2022-11-29T02:36:04.616Z,89.06
2022-11-29T02:38:53.000Z,88.91
2022-11-29T02:41:35.902Z,89.11
2022-11-29T02:44:26.419Z,89.17
2022-11-29T02:47:06.987Z,88.88
2022-11-29T02:49:48.203Z,88.80
2022-11-29T02:52:22.203Z,88.79
2022-11-29T02:54:56.518Z,88.80
2022-11-29T02:57:31.003Z,88.77
2022-11-29T03:00:06.689Z,88.77
2022-11-29T03:02:41.716Z,88.84
2022-11-29T03:05:18.677Z,88.83
2022-11-29T03:07:55.714Z,88.92
2022-11-29T03:10:33.561Z,89.06
2022-11-29T03:13:09.048Z,89.04
2022-11-29T03:15:45.850Z,88.87
2022-11-29T03:18:28.484Z,88.80
2022-11-29T03:21:08.792Z,88.99
2022-11-29T03:23:43.383Z,89.28
2022-11-29T03:26:18.724Z,89.08
2022-11-29T03:28:54.946Z,89.01
2022-11-29T03:31:30.278Z,89.25
2022-11-29T03:34:09.178Z,89.33
2022-11-29T03:36:45.555Z,89.24
2022-11-29T03:39:22.237Z,89.30
2022-11-29T03:41:56.667Z,89.22
2022-11-29T03:44:32.167Z,89.35
2022-11-29T03:47:06.009Z,89.22
2022-11-29T03:49:38.936Z,89.32
2022-11-29T03:52:08.962Z,89.41
2022-11-29T03:54:47.981Z,89.30
2022-11-29T03:57:23.175Z,89.06
2022-11-29T04:00:01.737Z,89.04
2022-11-29T04:03:06.344Z,88.87
2022-11-29T04:06:05.860Z,88.55
2022-11-29T04:09:02.765Z,88.59
2022-11-29T04:11:55.695Z,88.92
2022-11-29T04:14:40.324Z,88.93
2022-11-29T04:17:30.932Z,88.91
2022-11-29T04:20:18.018Z,88.92
2022-11-29T04:23:34.009Z,88.90
2022-11-29T04:26:22.341Z,89.03
2022-11-29T04:29:12.760Z,89.02
2022-11-29T04:32:02.622Z,89.16
2022-11-29T04:34:57.288Z,89.18
2022-11-29T04:37:44.408Z,89.18
2022-11-29T04:40:29.141Z,89.13
2022-11-29T04:43:11.454Z,89.13
2022-11-29T04:45:59.819Z,89.39
2022-11-29T04:48:44.056Z,89.51
2022-11-29T04:51:22.749Z,89.59
2022-11-29T04:53:56.578Z,89.45
2022-11-29T04:56:32.477Z,89.33
2022-11-29T04:59:07.058Z,89.50
2022-11-29T05:01:47.833Z,89.62
2022-11-29T05:04:22.474Z,89.60
2022-11-29T05:07:04.889Z,89.59
2022-11-29T05:09:43.207Z,89.56
2022-11-29T05:12:21.956Z,89.61
2022-11-29T05:15:10.891Z,89.81
2022-11-29T05:17:48.675Z,89.84
2022-11-29T05:20:27.415Z,89.78
2022-11-29T05:23:12.196Z,89.68
2022-11-29T05:25:49.441Z,89.67
2022-11-29T05:28:25.512Z,89.53
2022-11-29T05:44:08.619Z,89.46
2022-11-29T05:46:46.572Z,89.47
2022-11-29T05:49:23.252Z,89.58
2022-11-29T05:52:01.222Z,89.61
2022-11-29T05:54:34.323Z,89.50
2022-11-29T05:57:11.797Z,89.56
2022-11-29T05:59:44.194Z,89.38
2022-11-29T06:02:24.014Z,89.36
2022-11-29T06:05:07.713Z,89.59
2022-11-29T06:07:42.155Z,89.38
2022-11-29T06:10:17.738Z,89.64
2022-11-29T06:12:54.883Z,89.74
2022-11-29T06:15:35.587Z,89.72
2022-11-29T06:18:17.826Z,89.65
2022-11-29T06:21:16.988Z,89.61
2022-11-29T06:23:58.842Z,89.36
2022-11-29T06:26:41.094Z,89.14
2022-11-29T06:29:25.195Z,89.26
2022-11-29T06:32:01.117Z,89.31
2022-11-29T06:34:36.977Z,89.40
2022-11-29T06:37:13.631Z,89.62
2022-11-29T06:39:44.709Z,89.69
2022-11-29T06:42:15.117Z,89.81
2022-11-29T06:44:49.493Z,89.70
2022-11-29T06:47:26.492Z,89.75
2022-11-29T06:50:02.547Z,89.61
2022-11-29T06:52:38.802Z,89.53
2022-11-29T06:55:16.303Z,89.63
2022-11-29T06:58:00.771Z,89.66
2022-11-29T07:00:37.696Z,89.60
2022-11-29T07:03:25.182Z,89.67
2022-11-29T07:05:56.389Z,89.64
2022-11-29T07:08:27.937Z,89.66
2022-11-29T07:11:00.443Z,89.58
2022-11-29T07:13:31.863Z,89.40
2022-11-29T07:16:07.909Z,89.35
2022-11-29T07:18:44.632Z,89.40
2022-11-29T07:21:27.906Z,89.51
2022-11-29T07:23:58.269Z,89.80
2022-11-29T07:26:34.165Z,89.83
2022-11-29T07:29:17.261Z,89.75
2022-11-29T07:31:59.486Z,89.79
2022-11-29T07:34:36.228Z,89.85
2022-11-29T07:37:11.966Z,89.90
2022-11-29T07:39:47.592Z,89.92
2022-11-29T07:42:23.583Z,90.06
2022-11-29T07:45:00.410Z,90.22
2022-11-29T07:47:35.589Z,90.19
2022-11-29T07:50:07.627Z,89.96
2022-11-29T07:52:38.365Z,89.82
2022-11-29T07:55:18.293Z,89.91
2022-11-29T07:57:49.396Z,90.08
2022-11-29T08:00:21.696Z,90.06
2022-11-29T08:02:52.692Z,89.85
2022-11-29T08:05:23.950Z,89.70
2022-11-29T08:07:55.880Z,89.69
2022-11-29T08:10:26.587Z,89.61
2022-11-29T08:12:56.988Z,89.57
2022-11-29T08:15:28.024Z,89.54
2022-11-29T08:17:58.534Z,89.60
2022-11-29T08:20:28.966Z,89.45
2022-11-29T08:23:00.311Z,89.29
2022-11-29T08:25:31.304Z,89.19
2022-11-29T08:28:02.141Z,89.20
2022-11-29T08:30:33.118Z,89.12
2022-11-29T08:33:03.861Z,89.20
2022-11-29T08:35:35.351Z,89.23
2022-11-29T08:38:06.799Z,89.10
2022-11-29T08:40:37.245Z,89.11
2022-11-29T08:43:07.876Z,89.22
2022-11-29T08:45:38.682Z,89.19
2022-11-29T08:48:14.497Z,89.01
2022-11-29T08:50:44.954Z,88.96
2022-11-29T08:53:33.107Z,88.98
2022-11-29T08:56:23.471Z,88.84
2022-11-29T08:58:54.472Z,89.05
2022-11-29T09:01:25.111Z,89.30
2022-11-29T09:04:02.863Z,89.43
2022-11-29T09:09:40.988Z,88.85
2022-11-29T09:12:11.413Z,88.83
2022-11-29T09:14:42.013Z,88.77
2022-11-29T09:17:12.593Z,88.88
2022-11-29T09:19:43.002Z,88.89
2022-11-29T09:22:13.450Z,89.00
2022-11-29T09:24:44.586Z,89.11
2022-11-29T09:27:15.226Z,89.11
2022-11-29T09:29:45.662Z,89.24
2022-11-29T09:32:16.616Z,89.39
2022-11-29T09:34:47.506Z,89.53
2022-11-29T09:37:18.383Z,89.45
2022-11-29T09:39:49.077Z,89.53
2022-11-29T09:42:32.333Z,89.71
2022-11-29T09:45:04.525Z,89.75
2022-11-29T09:47:45.931Z,89.45
2022-11-29T09:50:24.603Z,89.16
2022-11-29T09:53:04.281Z,89.03
2022-11-29T09:55:43.939Z,88.77
2022-11-29T09:58:16.947Z,88.67
2022-11-29T10:00:47.346Z,88.65
2022-11-29T10:03:25.330Z,88.66
2022-11-29T10:06:07.638Z,88.79
2022-11-29T10:08:41.908Z,88.47
2022-11-29T10:11:22.241Z,88.42
2022-11-29T10:13:54.957Z,88.34
2022-11-29T10:16:29.708Z,88.38
2022-11-29T10:19:08.149Z,88.40
2022-11-29T10:21:41.662Z,88.55
2022-11-29T10:24:17.891Z,88.69
2022-11-29T10:26:48.663Z,88.46
2022-11-29T10:29:19.593Z,88.39
2022-11-29T10:31:50.533Z,88.48
2022-11-29T10:34:23.402Z,88.45
2022-11-29T10:36:58.637Z,88.38
2022-11-29T10:39:39.763Z,88.41
2022-11-29T10:42:30.424Z,88.34
2022-11-29T10:45:01.788Z,88.03
2022-11-29T10:47:32.683Z,87.93
2022-11-29T10:50:03.382Z,88.05
2022-11-29T10:52:34.852Z,88.33
2022-11-29T10:55:05.823Z,88.61
2022-11-29T10:57:36.558Z,88.47
2022-11-29T11:00:10.358Z,88.11
2022-11-29T11:02:41.550Z,87.88
2022-11-29T11:05:19.345Z,87.81
2022-11-29T11:07:58.285Z,88.05
2022-11-29T11:10:30.848Z,88.05
2022-11-29T11:13:06.716Z,87.86
2022-11-29T11:15:38.039Z,87.91
2022-11-29T11:18:22.345Z,87.79
2022-11-29T11:20:57.514Z,87.57
2022-11-29T11:23:30.139Z,87.66
2022-11-29T11:26:02.728Z,87.53
2022-11-29T11:28:35.839Z,87.60
2022-11-29T11:31:10.892Z,87.59
2022-11-29T11:33:42.322Z,87.70
2022-11-29T11:36:15.341Z,87.73
2022-11-29T11:38:53.663Z,87.97
2022-11-29T11:41:48.594Z,88.24
2022-11-29T11:44:58.554Z,88.46
2022-11-29T11:47:25.255Z,88.00
2022-11-29T11:50:06.767Z,88.00
2022-11-29T11:52:50.127Z,88.01
2022-11-29T11:55:33.133Z,88.00
2022-11-29T11:58:10.219Z,88.00
2022-11-29T12:03:39.396Z,88.36
2022-11-29T12:06:35.932Z,88.42
2022-11-29T12:09:13.200Z,88.40
2022-11-29T12:11:48.555Z,88.44
2022-11-29T12:14:24.574Z,88.01
2022-11-29T12:17:03.047Z,87.89
2022-11-29T12:19:39.525Z,87.86
2022-11-29T12:22:17.121Z,88.02
2022-11-29T12:24:51.715Z,87.80
2022-11-29T12:27:22.180Z,87.40
2022-11-29T12:29:53.155Z,86.98
2022-11-29T12:32:37.418Z,86.71
2022-11-29T12:35:32.451Z,86.58
2022-11-29T12:38:09.088Z,86.88
2022-11-29T12:40:44.706Z,86.94
2022-11-29T12:43:22.830Z,87.10
2022-11-29T12:46:01.360Z,87.23
2022-11-29T12:48:39.229Z,87.28
2022-11-29T12:51:14.263Z,87.40
2022-11-29T12:53:53.446Z,87.57
2022-11-29T12:56:27.097Z,87.55
2022-11-29T12:59:09.437Z,87.68
2022-11-29T13:01:51.112Z,87.84
2022-11-29T13:04:26.866Z,88.05
2022-11-29T13:07:00.582Z,88.31
2022-11-29T13:09:49.895Z,88.35
2022-11-29T13:12:24.697Z,88.29
2022-11-29T13:15:02.671Z,88.23
2022-11-29T13:17:39.048Z,88.20
2022-11-29T13:20:20.115Z,88.14
2022-11-29T13:22:54.424Z,88.53
2022-11-29T13:25:28.023Z,88.80
2022-11-29T13:28:01.591Z,88.57
2022-11-29T13:30:32.499Z,88.59
2022-11-29T13:33:06.737Z,88.93
2022-11-29T13:35:43.041Z,89.24
2022-11-29T13:38:22.788Z,89.46
2022-11-29T13:41:00.943Z,89.24
2022-11-29T13:43:36.453Z,88.93
2022-11-29T13:46:15.422Z,88.64
2022-11-29T13:48:52.745Z,88.56
2022-11-29T13:51:34.693Z,88.84
2022-11-29T13:54:07.144Z,88.78
2022-11-29T13:56:46.550Z,88.54
2022-11-29T13:59:23.850Z,88.27
2022-11-29T14:01:55.337Z,88.00
2022-11-29T14:04:31.990Z,88.12
2022-11-29T14:07:08.107Z,88.43
2022-11-29T14:09:51.809Z,88.49
2022-11-29T14:12:35.850Z,88.40
2022-11-29T14:15:18.109Z,88.41
2022-11-29T14:17:54.251Z,88.41
2022-11-29T14:20:59.849Z,88.31
2022-11-29T14:23:50.313Z,88.32
2022-11-29T14:26:31.504Z,88.26
2022-11-29T14:29:02.345Z,88.13
2022-11-29T14:31:56.176Z,88.08
2022-11-29T14:34:40.658Z,88.33
2022-11-29T14:37:21.633Z,88.30
2022-11-29T14:39:55.007Z,88.34
2022-11-29T14:42:26.720Z,88.48
2022-11-29T14:45:01.305Z,88.48
2022-11-29T14:47:34.413Z,88.39
2022-11-29T14:50:09.137Z,88.21
2022-11-29T14:52:41.198Z,88.43
2022-11-29T14:55:32.398Z,88.37
2022-11-29T14:58:20.757Z,88.25
2022-11-29T15:01:10.099Z,88.11
2022-11-29T15:03:55.765Z,88.20
2022-11-29T15:06:28.345Z,88.44
2022-11-29T15:09:08.717Z,88.55
2022-11-29T15:11:53.128Z,88.53
2022-11-29T15:14:30.749Z,88.49
2022-11-29T15:17:24.789Z,88.55
2022-11-29T15:20:21.787Z,88.65
2022-11-29T15:22:53.763Z,88.30
2022-11-29T15:25:26.255Z,88.14
2022-11-29T15:27:58.448Z,88.17
2022-11-29T15:30:35.285Z,88.09
2022-11-29T15:33:07.877Z,88.27
2022-11-29T15:35:38.781Z,88.46
2022-11-29T15:38:12.248Z,88.45
2022-11-29T15:40:44.977Z,88.37
2022-11-29T15:43:16.583Z,88.36
2022-11-29T15:45:50.679Z,88.59
2022-11-29T15:48:23.726Z,88.89
2022-11-29T15:50:54.645Z,88.71
2022-11-29T15:53:28.480Z,88.81
2022-11-29T15:55:59.731Z,88.68
2022-11-29T15:58:32.330Z,88.56
2022-11-29T16:01:03.590Z,88.25
2022-11-29T16:03:35.816Z,88.12
2022-11-29T16:06:16.698Z,87.98
2022-11-29T16:08:47.619Z,87.92
2022-11-29T16:11:21.084Z,88.02
2022-11-29T16:14:17.844Z,87.97
2022-11-29T16:16:51.314Z,87.99
2022-11-29T16:19:36.862Z,88.06
2022-11-29T16:22:19.204Z,88.16
2022-11-29T16:25:00.881Z,88.33
2022-11-29T16:27:34.569Z,88.53
2022-11-29T16:30:06.734Z,88.51
2022-11-29T16:32:39.037Z,88.50
2022-11-29T16:35:14.183Z,88.63
2022-11-29T16:37:46.335Z,88.74
2022-11-29T16:40:24.544Z,89.13
2022-11-29T16:43:19.286Z,89.29
2022-11-29T16:45:50.425Z,89.42
2022-11-29T16:48:37.981Z,89.42
2022-11-29T16:51:27.187Z,89.35
2022-11-29T16:53:57.643Z,89.27
2022-11-29T16:56:30.222Z,89.14
2022-11-29T16:59:21.081Z,88.94
2022-11-29T17:01:58.426Z,88.96
2022-11-29T17:04:29.176Z,89.00
2022-11-29T17:06:59.896Z,89.10
2022-11-29T17:09:34.950Z,89.27
2022-11-29T17:12:05.789Z,89.38
2022-11-29T17:14:36.398Z,89.27
2022-11-29T17:17:06.988Z,89.27
2022-11-29T17:19:37.844Z,89.24
2022-11-29T17:22:08.371Z,89.06
2022-11-29T17:24:46.218Z,89.14
2022-11-29T17:27:18.515Z,89.25
2022-11-29T17:29:49.064Z,89.26
2022-11-29T17:32:24.914Z,89.32
2022-11-29T17:34:57.133Z,89.35
2022-11-29T17:37:27.548Z,89.37
2022-11-29T17:39:58.153Z,89.49
2022-11-29T17:42:28.574Z,89.55
2022-11-29T17:44:58.939Z,89.64
2022-11-29T17:47:32.516Z,89.66
2022-11-29T17:50:03.160Z,89.63
2022-11-29T17:52:34.079Z,89.71
2022-11-29T17:55:04.750Z,89.85
2022-11-29T17:57:35.738Z,89.97
2022-11-29T18:00:08.812Z,89.96
2022-11-29T18:02:38.043Z,89.95
2022-11-29T18:05:10.196Z,89.97
2022-11-29T18:07:57.940Z,90.05
2022-11-29T18:10:29.232Z,90.03
2022-11-29T18:12:59.787Z,90.15
2022-11-29T18:15:30.214Z,90.31
2022-11-29T18:18:00.748Z,90.47
2022-11-29T18:20:33.061Z,90.34
2022-11-29T18:23:07.795Z,90.27
2022-11-29T18:25:39.842Z,90.18
2022-11-29T18:28:11.606Z,90.38
2022-11-29T18:30:42.245Z,90.56
2022-11-29T18:33:12.660Z,90.62
2022-11-29T18:35:43.157Z,90.74
2022-11-29T18:38:15.731Z,90.91
2022-11-29T18:40:47.540Z,91.03
2022-11-29T18:43:22.006Z,91.05
2022-11-29T18:46:06.365Z,91.17
2022-11-29T18:48:40.550Z,91.22
2022-11-29T18:51:14.018Z,91.24
2022-11-29T18:53:50.516Z,91.12
2022-11-29T18:56:22.675Z,90.96
2022-11-29T18:58:58.435Z,91.09
2022-11-29T19:01:30.874Z,90.98
2022-11-29T19:04:12.463Z,91.00
2022-11-29T19:06:43.602Z,90.86
2022-11-29T19:09:16.616Z,90.67
2022-11-29T19:11:45.606Z,90.54
2022-11-29T19:14:16.362Z,90.44
2022-11-29T19:16:49.932Z,90.15
2022-11-29T19:19:21.670Z,90.32
2022-11-29T19:21:52.657Z,90.52
2022-11-29T19:24:23.183Z,90.72
2022-11-29T19:26:55.766Z,90.75
2022-11-29T19:29:26.419Z,90.73
2022-11-29T19:31:58.010Z,90.69
2022-11-29T19:34:32.883Z,90.58
2022-11-29T19:37:03.693Z,90.36
2022-11-29T19:39:38.118Z,90.16
2022-11-29T19:42:09.038Z,90.02
2022-11-29T19:45:14.963Z,89.92
2022-11-29T19:47:33.447Z,89.96
2022-11-29T19:50:05.263Z,89.91
2022-11-29T19:52:36.409Z,89.97
2022-11-29T19:55:10.448Z,89.91
2022-11-29T19:57:44.399Z,89.90
2022-11-29T20:00:17.837Z,89.89
2022-11-29T20:02:48.482Z,89.96
2022-11-29T20:05:22.159Z,90.11
2022-11-29T20:07:57.597Z,90.12
2022-11-29T20:10:28.811Z,90.10
2022-11-29T20:13:04.669Z,90.10
2022-11-29T20:15:36.059Z,90.06
2022-11-29T20:18:11.175Z,90.09
2022-11-29T20:20:42.560Z,90.18
2022-11-29T20:23:21.196Z,90.30
2022-11-29T20:25:59.846Z,90.28
2022-11-29T20:28:31.702Z,90.03
2022-11-29T20:31:09.042Z,89.90
2022-11-29T20:33:43.020Z,90.00
2022-11-29T20:36:30.233Z,90.04
2022-11-29T20:39:11.894Z,90.04
2022-11-29T20:41:50.878Z,90.16
2022-11-29T20:44:25.610Z,90.10
2022-11-29T20:46:57.905Z,90.08
2022-11-29T20:49:33.968Z,89.99
2022-11-29T20:52:12.884Z,89.99
2022-11-29T20:54:49.922Z,90.13
2022-11-29T20:57:22.914Z,90.12
2022-11-29T20:59:57.085Z,90.06
2022-11-29T21:02:29.079Z,90.03
2022-11-29T21:11:10.446Z,90.13
2022-11-29T21:13:42.248Z,90.30
2022-11-29T21:16:15.624Z,90.34
2022-11-29T21:18:48.489Z,90.29
2022-11-29T21:21:26.098Z,90.36
2022-11-29T21:24:04.059Z,90.31
2022-11-29T21:26:41.522Z,90.34
2022-11-29T21:29:18.198Z,90.42
2022-11-29T21:31:57.170Z,90.43
2022-11-29T21:34:27.592Z,90.24
2022-11-29T21:36:59.545Z,90.17
2022-11-29T21:39:34.149Z,90.13
2022-11-29T21:42:05.361Z,90.19
2022-11-29T21:44:36.675Z,90.26
2022-11-29T21:47:07.310Z,90.21
2022-11-29T21:49:38.066Z,90.11
2022-11-29T21:52:08.807Z,89.95
2022-11-29T21:54:40.330Z,89.94
2022-11-29T21:57:10.789Z,89.83
2022-11-29T21:59:41.296Z,89.77
2022-11-29T22:02:11.868Z,89.76
2022-11-29T22:04:42.518Z,89.85
2022-11-29T22:07:13.019Z,89.84
2022-11-29T22:09:43.564Z,89.89
2022-11-29T22:12:32.936Z,89.86
2022-11-29T22:15:04.518Z,89.85
2022-11-29T22:17:35.135Z,89.88
2022-11-29T22:20:06.739Z,89.91
2022-11-29T22:22:37.370Z,89.94
2022-11-29T22:25:08.762Z,89.99
2022-11-29T22:27:39.297Z,89.96
2022-11-29T22:30:11.332Z,89.85
2022-11-29T22:32:41.712Z,89.77
2022-11-29T22:35:12.551Z,89.71
2022-11-29T22:37:43.007Z,89.83
2022-11-29T22:40:15.301Z,89.79
2022-11-29T22:42:45.788Z,89.53
2022-11-29T22:45:16.636Z,89.31
2022-11-29T22:47:47.274Z,89.40
2022-11-29T22:50:17.940Z,89.45
2022-11-29T22:52:48.671Z,89.58
2022-11-29T22:55:19.299Z,89.61
2022-11-29T22:57:51.650Z,89.64
2022-11-29T23:00:22.624Z,89.63
2022-11-29T23:02:53.187Z,89.73
2022-11-29T23:05:24.413Z,89.87
2022-11-29T23:08:00.683Z,90.02
2022-11-29T23:10:31.286Z,90.16
2022-11-29T23:13:02.903Z,90.36
2022-11-29T23:15:33.563Z,90.45
2022-11-29T23:18:04.461Z,90.63
2022-11-29T23:20:34.741Z,90.89
2022-11-29T23:28:38.774Z,91.06
2022-11-29T23:31:09.346Z,90.96
2022-11-29T23:33:39.966Z,90.80
2022-11-29T23:36:13.342Z,90.81
2022-11-29T23:38:44.729Z,90.89
2022-11-29T23:41:15.591Z,90.91
2022-11-29T23:43:46.388Z,90.89
2022-11-29T23:46:19.052Z,90.73
2022-11-29T23:48:50.030Z,90.65
2022-11-29T23:51:23.772Z,90.47
2022-11-29T23:53:55.089Z,90.49
2022-11-29T23:56:25.810Z,90.59
2022-11-29T23:58:56.185Z,90.78
